Time;durP1;ratioP1;P1;durP2;ratioP2;P2;SDS_P1;SDS_P2;PMS_P1;PMS_P2;Temp;Humidity;BMP_temperature;BMP_pressure;BME280_temperature;BME280_humidity;BME280_pressure;Samples;Min_cycle;Max_cycle;Signal;HPM_P1;HPM_P2
2021/07/01 00:00:19;;;;;;;13.32;8.82;;;;;;;;;;5115170;27;20554;-90
2021/07/01 00:02:46;;;;;;;15.43;9.25;;;;;;;;;;5137561;27;20046;-88
2021/07/01 00:05:14;;;;;;;13.52;8.32;;;;;;;;;;5137696;27;20102;-84
2021/07/01 00:07:40;;;;;;;12.25;8.15;;;;;;;;;;5137592;27;20019;-83
2021/07/01 00:10:26;;;;;;;16.23;9.38;;;;;;;;;;5119178;27;20016;-88
2021/07/01 00:12:53;;;;;;;9.75;8.45;;;;;;;;;;5137517;27;20108;-87
2021/07/01 00:15:20;;;;;;;14.88;8.88;;;;;;;;;;5118927;27;20028;-89
2021/07/01 00:17:47;;;;;;;13.15;8.77;;;;;;;;;;5111011;27;20023;-88
2021/07/01 00:20:13;;;;;;;11.77;9.05;;;;;;;;;;5119118;27;20027;-84
2021/07/01 00:22:40;;;;;;;13.27;8.80;;;;;;;;;;5137149;27;20359;-85
2021/07/01 00:25:07;;;;;;;14.02;8.48;;;;;;;;;;5119011;27;20489;-88
2021/07/01 00:27:33;;;;;;;13.02;9.35;;;;;;;;;;5101766;27;20047;-89
2021/07/01 00:29:59;;;;;;;12.52;8.98;;;;;;;;;;5118903;27;20019;-86
2021/07/01 00:32:25;;;;;;;13.00;9.77;;;;;;;;;;5118639;27;20023;-86
2021/07/01 00:34:52;;;;;;;12.65;8.77;;;;;;;;;;5118675;27;20050;-89
2021/07/01 00:37:18;;;;;;;11.57;8.30;;;;;;;;;;5118735;27;20027;-88
2021/07/01 00:39:44;;;;;;;14.45;9.30;;;;;;;;;;5128240;27;20446;-85
2021/07/01 00:42:10;;;;;;;11.77;8.60;;;;;;;;;;5118691;27;20028;-88
2021/07/01 00:44:36;;;;;;;11.27;8.43;;;;;;;;;;5118424;27;20072;-86
2021/07/01 00:47:12;;;;;;;12.93;8.55;;;;;;;;;;5118865;27;20027;-88
2021/07/01 00:49:38;;;;;;;12.82;8.95;;;;;;;;;;5118377;27;20091;-83
2021/07/01 00:52:04;;;;;;;14.38;8.63;;;;;;;;;;5118363;27;20053;-86
2021/07/01 00:54:30;;;;;;;20.25;10.02;;;;;;;;;;5136484;27;20023;-87
2021/07/01 00:56:56;;;;;;;14.10;9.15;;;;;;;;;;5118422;27;20023;-86
2021/07/01 00:59:23;;;;;;;10.05;8.30;;;;;;;;;;5118074;27;20023;-89
2021/07/01 01:01:50;;;;;;;9.93;8.43;;;;;;;;;;5118099;27;20076;-86
2021/07/01 01:04:16;;;;;;;15.50;9.63;;;;;;;;;;5136355;27;20058;-88
2021/07/01 01:06:42;;;;;;;13.45;8.98;;;;;;;;;;5118065;27;20027;-89
2021/07/01 01:09:09;;;;;;;14.95;8.80;;;;;;;;;;5136572;27;20027;-89
2021/07/01 01:11:35;;;;;;;11.10;8.27;;;;;;;;;;5135658;27;20023;-88
2021/07/01 01:14:02;;;;;;;11.45;8.73;;;;;;;;;;5117927;27;20034;-88
2021/07/01 01:16:28;;;;;;;12.75;8.55;;;;;;;;;;5136113;27;20028;-83
2021/07/01 01:18:54;;;;;;;11.68;8.70;;;;;;;;;;5136146;27;20023;-85
2021/07/01 01:21:24;;;;;;;13.20;9.10;;;;;;;;;;5136152;27;20023;-88
2021/07/01 01:23:50;;;;;;;13.45;9.18;;;;;;;;;;5117663;27;20474;-90
2021/07/01 01:26:16;;;;;;;11.50;9.07;;;;;;;;;;5117697;27;20401;-86
2021/07/01 01:28:43;;;;;;;11.70;8.70;;;;;;;;;;5135966;27;20030;-88
2021/07/01 01:31:09;;;;;;;9.07;8.10;;;;;;;;;;5136098;27;20130;-89
2021/07/01 01:33:35;;;;;;;11.63;8.35;;;;;;;;;;5135860;27;20020;-85
2021/07/01 01:36:01;;;;;;;10.30;8.50;;;;;;;;;;5136081;27;20033;-87
2021/07/01 01:38:28;;;;;;;11.25;8.88;;;;;;;;;;5117493;27;20038;-84
2021/07/01 01:40:54;;;;;;;10.13;7.97;;;;;;;;;;5117082;27;20075;-82
2021/07/01 01:43:21;;;;;;;9.88;8.50;;;;;;;;;;5135610;27;20051;-86
2021/07/01 01:45:48;;;;;;;11.95;8.82;;;;;;;;;;5117365;27;20019;-84
2021/07/01 01:48:14;;;;;;;12.52;9.02;;;;;;;;;;5136480;27;20028;-82
2021/07/01 01:50:41;;;;;;;9.55;7.40;;;;;;;;;;5135045;27;20380;-81
2021/07/01 01:53:08;;;;;;;10.95;8.57;;;;;;;;;;5135255;27;20058;-81
2021/07/01 01:55:35;;;;;;;9.63;8.63;;;;;;;;;;5135021;27;20058;-82
2021/07/01 01:58:01;;;;;;;10.93;8.60;;;;;;;;;;5116557;27;20644;-82
2021/07/01 02:00:28;;;;;;;9.45;8.65;;;;;;;;;;5134944;27;20023;-82
2021/07/01 02:02:55;;;;;;;9.52;8.50;;;;;;;;;;5134655;27;20027;-83
2021/07/01 02:05:21;;;;;;;10.68;9.23;;;;;;;;;;5134924;27;20020;-84
2021/07/01 02:07:48;;;;;;;10.30;8.50;;;;;;;;;;5134731;27;20023;-82
2021/07/01 02:10:18;;;;;;;13.07;8.70;;;;;;;;;;5134757;27;20135;-83
2021/07/01 02:12:45;;;;;;;12.00;8.98;;;;;;;;;;5126131;27;20034;-81
2021/07/01 02:15:12;;;;;;;32.83;25.90;;;;;;;;;;5134835;27;20031;-82
2021/07/01 02:17:39;;;;;;;15.73;13.10;;;;;;;;;;5134437;27;20020;-83
2021/07/01 02:20:16;;;;;;;10.60;9.38;;;;;;;;;;5134686;27;20023;-86
2021/07/01 02:22:45;;;;;;;15.10;9.88;;;;;;;;;;5134223;27;20024;-90
2021/07/01 02:25:11;;;;;;;11.30;9.05;;;;;;;;;;5115806;27;20031;-84
2021/07/01 02:27:38;;;;;;;10.10;8.73;;;;;;;;;;5134426;27;20030;-84
2021/07/01 02:30:05;;;;;;;15.70;13.73;;;;;;;;;;5134842;27;20090;-83
2021/07/01 02:32:31;;;;;;;15.82;13.25;;;;;;;;;;5134499;27;20031;-88
2021/07/01 02:34:57;;;;;;;9.50;8.50;;;;;;;;;;5134553;27;20058;-84
2021/07/01 02:37:23;;;;;;;9.95;8.75;;;;;;;;;;5116174;27;20069;-85
2021/07/01 02:39:50;;;;;;;10.82;9.13;;;;;;;;;;5115631;27;20509;-85
2021/07/01 02:42:16;;;;;;;12.10;8.98;;;;;;;;;;5116142;27;20161;-87
2021/07/01 02:44:42;;;;;;;12.73;10.30;;;;;;;;;;5134176;27;20023;-88
2021/07/01 02:47:08;;;;;;;11.75;10.25;;;;;;;;;;5116309;27;20020;-84
2021/07/01 02:49:35;;;;;;;10.48;9.40;;;;;;;;;;5134534;27;20094;-84
2021/07/01 02:52:01;;;;;;;10.20;9.10;;;;;;;;;;5134426;27;20023;-87
2021/07/01 02:54:27;;;;;;;15.07;9.57;;;;;;;;;;5115848;27;20023;-86
2021/07/01 02:56:53;;;;;;;13.35;9.35;;;;;;;;;;5133962;27;20520;-88
2021/07/01 02:59:20;;;;;;;10.90;8.63;;;;;;;;;;5134392;27;20108;-85
2021/07/01 03:01:47;;;;;;;11.35;8.82;;;;;;;;;;5134095;27;20092;-88
2021/07/01 03:04:13;;;;;;;10.55;9.15;;;;;;;;;;5115730;27;20023;-84
2021/07/01 03:06:40;;;;;;;10.18;8.90;;;;;;;;;;5133773;27;20027;-84
2021/07/01 03:09:06;;;;;;;10.73;9.60;;;;;;;;;;5115582;27;20420;-86
2021/07/01 03:11:36;;;;;;;13.75;9.95;;;;;;;;;;5133883;27;20054;-85
2021/07/01 03:14:03;;;;;;;14.25;11.80;;;;;;;;;;5133619;27;20098;-85
2021/07/01 03:16:29;;;;;;;13.40;9.88;;;;;;;;;;5115436;27;20019;-86
2021/07/01 03:18:56;;;;;;;12.75;9.95;;;;;;;;;;5115199;27;20019;-84
2021/07/01 03:21:22;;;;;;;14.60;12.10;;;;;;;;;;5133529;27;20058;-85
2021/07/01 03:23:49;;;;;;;13.07;9.25;;;;;;;;;;5133383;27;20030;-84
2021/07/01 03:26:15;;;;;;;12.32;10.00;;;;;;;;;;5133640;27;20019;-85
2021/07/01 03:28:42;;;;;;;15.95;12.73;;;;;;;;;;5115060;27;20374;-84
2021/07/01 03:31:08;;;;;;;15.45;9.95;;;;;;;;;;5133675;27;20016;-84
2021/07/01 03:33:38;;;;;;;16.27;12.60;;;;;;;;;;5133496;27;20040;-86
2021/07/01 03:36:05;;;;;;;14.75;10.85;;;;;;;;;;5120328;27;20038;-84
2021/07/01 03:38:31;;;;;;;11.82;9.65;;;;;;;;;;5140335;27;20023;-87
2021/07/01 03:40:57;;;;;;;12.63;9.75;;;;;;;;;;5121779;27;20075;-83
2021/07/01 03:43:24;;;;;;;13.13;8.98;;;;;;;;;;5140353;27;20023;-86
2021/07/01 03:45:50;;;;;;;13.40;9.60;;;;;;;;;;5140113;27;20015;-86
2021/07/01 03:48:16;;;;;;;10.93;9.80;;;;;;;;;;5140305;27;20034;-85
2021/07/01 03:50:42;;;;;;;13.15;9.93;;;;;;;;;;5121872;27;20034;-86
2021/07/01 03:53:09;;;;;;;11.70;9.40;;;;;;;;;;5121793;27;20049;-86
2021/07/01 03:55:35;;;;;;;12.55;9.73;;;;;;;;;;5121797;27;20030;-88
2021/07/01 03:58:02;;;;;;;12.68;8.88;;;;;;;;;;5140127;27;20099;-84
2021/07/01 04:00:30;;;;;;;58.78;52.42;;;;;;;;;;5140237;27;20019;-85
2021/07/01 04:02:56;;;;;;;13.93;10.57;;;;;;;;;;5139791;27;20015;-87
2021/07/01 04:05:22;;;;;;;11.73;9.48;;;;;;;;;;5140425;27;20024;-90
2021/07/01 04:07:48;;;;;;;13.43;9.85;;;;;;;;;;5140120;27;20023;-84
2021/07/01 04:10:17;;;;;;;16.35;9.50;;;;;;;;;;5140292;27;20072;-85
2021/07/01 04:12:43;;;;;;;12.05;9.35;;;;;;;;;;5121754;27;20023;-87
2021/07/01 04:15:09;;;;;;;13.13;9.82;;;;;;;;;;5121784;27;20023;-85
2021/07/01 04:17:36;;;;;;;13.77;9.55;;;;;;;;;;5140221;27;20033;-85
2021/07/01 04:20:03;;;;;;;13.20;9.77;;;;;;;;;;5121726;27;20080;-86
2021/07/01 04:22:29;;;;;;;11.50;9.68;;;;;;;;;;5121440;27;20445;-84
2021/07/01 04:24:55;;;;;;;16.42;9.75;;;;;;;;;;5139776;27;20412;-83
2021/07/01 04:27:22;;;;;;;15.70;14.02;;;;;;;;;;5121444;27;20099;-86
2021/07/01 04:29:48;;;;;;;12.20;9.98;;;;;;;;;;5139600;27;20019;-85
2021/07/01 04:32:14;;;;;;;11.35;9.02;;;;;;;;;;5121194;27;20026;-84
2021/07/01 04:34:40;;;;;;;15.55;11.82;;;;;;;;;;5139929;27;20025;-82
2021/07/01 04:37:06;;;;;;;13.68;10.73;;;;;;;;;;5139798;27;20377;-88
2021/07/01 04:39:32;;;;;;;15.07;12.82;;;;;;;;;;5120966;27;20031;-88
2021/07/01 04:42:00;;;;;;;13.35;10.43;;;;;;;;;;5121289;27;20034;-83
2021/07/01 04:44:26;;;;;;;22.65;18.60;;;;;;;;;;5139552;27;20042;-85
2021/07/01 04:46:52;;;;;;;10.80;9.70;;;;;;;;;;5137200;27;20019;-85
2021/07/01 04:49:18;;;;;;;10.40;9.23;;;;;;;;;;5136396;27;20394;-84
2021/07/01 04:51:44;;;;;;;11.30;9.65;;;;;;;;;;5131601;27;20024;-87
2021/07/01 04:54:11;;;;;;;14.40;10.25;;;;;;;;;;5108749;27;20027;-88
2021/07/01 04:56:43;;;;;;;12.82;10.45;;;;;;;;;;5095559;28;20405;-86
2021/07/01 04:59:10;;;;;;;12.52;9.90;;;;;;;;;;5116099;28;20038;-86
2021/07/01 05:01:37;;;;;;;11.25;8.98;;;;;;;;;;5089490;28;20377;-83
2021/07/01 05:04:03;;;;;;;11.77;9.48;;;;;;;;;;5110542;27;20026;-85
2021/07/01 05:06:29;;;;;;;14.05;9.38;;;;;;;;;;5136352;27;20076;-92
2021/07/01 05:08:55;;;;;;;11.63;9.32;;;;;;;;;;5117548;27;20385;-83
2021/07/01 05:11:22;;;;;;;11.30;8.63;;;;;;;;;;5136129;27;20035;-85
2021/07/01 05:13:49;;;;;;;12.40;8.65;;;;;;;;;;5117564;27;20019;-85
2021/07/01 05:16:15;;;;;;;16.70;9.50;;;;;;;;;;5100693;27;20023;-86
2021/07/01 05:18:41;;;;;;;15.35;8.93;;;;;;;;;;5117741;27;20015;-77
2021/07/01 05:21:07;;;;;;;9.75;8.05;;;;;;;;;;5135665;27;20527;-86
2021/07/01 05:23:33;;;;;;;12.93;8.38;;;;;;;;;;5135622;27;20061;-79
2021/07/01 05:25:59;;;;;;;14.15;9.20;;;;;;;;;;5117813;27;20030;-81
2021/07/01 05:28:25;;;;;;;32.58;9.68;;;;;;;;;;5090339;28;20054;-83
2021/07/01 05:30:52;;;;;;;8.77;6.75;;;;;;;;;;5107877;27;20058;-84
2021/07/01 05:33:18;;;;;;;7.25;6.40;;;;;;;;;;5127133;27;20110;-80
2021/07/01 05:35:45;;;;;;;9.63;7.53;;;;;;;;;;5113441;28;20061;-86
2021/07/01 05:38:11;;;;;;;9.27;7.90;;;;;;;;;;5125500;27;20030;-88
2021/07/01 05:40:37;;;;;;;15.98;11.20;;;;;;;;;;5115129;27;20035;-84
2021/07/01 05:43:04;;;;;;;16.25;14.45;;;;;;;;;;5106196;27;20028;-86
2021/07/01 05:45:30;;;;;;;12.85;8.57;;;;;;;;;;5095208;28;20058;-89
2021/07/01 05:47:56;;;;;;;11.52;7.53;;;;;;;;;;5074645;28;20023;-87
2021/07/01 05:50:23;;;;;;;11.85;7.97;;;;;;;;;;5093023;28;20034;-87
2021/07/01 05:52:58;;;;;;;10.93;7.88;;;;;;;;;;5092988;28;20031;-86
2021/07/01 05:55:24;;;;;;;14.05;12.45;;;;;;;;;;5073743;28;20559;-87
2021/07/01 05:57:50;;;;;;;10.70;7.85;;;;;;;;;;5092166;28;20039;-83
2021/07/01 06:00:18;;;;;;;10.35;7.57;;;;;;;;;;5092017;28;20134;-85
2021/07/01 06:02:45;;;;;;;18.85;8.80;;;;;;;;;;5092384;28;20028;-86
2021/07/01 06:05:11;;;;;;;17.25;7.93;;;;;;;;;;5112740;28;20042;-86
2021/07/01 06:07:39;;;;;;;10.68;9.35;;;;;;;;;;5094584;28;20023;-88
2021/07/01 06:10:06;;;;;;;13.98;7.90;;;;;;;;;;5112575;28;20161;-86
2021/07/01 06:12:34;;;;;;;16.05;9.55;;;;;;;;;;5105573;28;20020;-85
2021/07/01 06:15:00;;;;;;;11.82;7.93;;;;;;;;;;5092497;28;20390;-85
2021/07/01 06:17:32;;;;;;;11.98;7.65;;;;;;;;;;5074063;28;20016;-88
2021/07/01 06:20:00;;;;;;;16.73;10.35;;;;;;;;;;5075495;28;20107;-84
2021/07/01 06:22:29;;;;;;;25.27;12.00;;;;;;;;;;5093351;28;20461;-85
2021/07/01 06:24:58;;;;;;;10.90;8.30;;;;;;;;;;5112744;28;20030;-84
2021/07/01 06:30:09;;;;;;;26.88;8.02;;;;;;;;;;5112312;28;20485;-87
2021/07/01 06:32:43;;;;;;;26.60;8.45;;;;;;;;;;5093993;28;20080;-88
2021/07/01 06:35:09;;;;;;;22.83;7.63;;;;;;;;;;5112370;28;20027;-83
2021/07/01 06:37:38;;;;;;;11.27;6.80;;;;;;;;;;5100089;27;20019;-85
2021/07/01 06:40:05;;;;;;;19.05;7.60;;;;;;;;;;5122270;27;20425;-87
2021/07/01 06:42:33;;;;;;;10.05;6.60;;;;;;;;;;5130043;27;20099;-89
2021/07/01 06:45:01;;;;;;;13.10;6.55;;;;;;;;;;5132126;27;20019;-81
2021/07/01 06:47:28;;;;;;;8.10;6.32;;;;;;;;;;5132542;27;20359;-83
2021/07/01 06:49:55;;;;;;;8.82;7.43;;;;;;;;;;5133034;27;20598;-86
2021/07/01 06:52:21;;;;;;;9.45;6.80;;;;;;;;;;5132759;27;20023;-86
2021/07/01 06:54:48;;;;;;;11.80;6.68;;;;;;;;;;5153608;27;20027;-80
2021/07/01 06:57:14;;;;;;;9.63;6.30;;;;;;;;;;5153260;27;20018;-81
2021/07/01 06:59:41;;;;;;;15.07;11.55;;;;;;;;;;5134462;27;20027;-85
2021/07/01 07:02:08;;;;;;;11.23;6.75;;;;;;;;;;5134794;27;20060;-83
2021/07/01 07:04:35;;;;;;;13.68;6.57;;;;;;;;;;5134097;27;20515;-84
2021/07/01 07:07:04;;;;;;;13.98;6.63;;;;;;;;;;5153280;27;20023;-87
2021/07/01 07:09:30;;;;;;;15.25;7.40;;;;;;;;;;5152811;27;20101;-86
2021/07/01 07:11:56;;;;;;;16.05;6.57;;;;;;;;;;5153103;27;20072;-87
2021/07/01 07:14:23;;;;;;;14.77;7.05;;;;;;;;;;5152854;27;20038;-87
2021/07/01 07:16:53;;;;;;;11.77;6.97;;;;;;;;;;5134435;27;20050;-88
2021/07/01 07:19:27;;;;;;;9.50;6.25;;;;;;;;;;5153022;27;20026;-86
2021/07/01 07:21:53;;;;;;;10.43;6.43;;;;;;;;;;5152930;27;20030;-86
2021/07/01 07:24:21;;;;;;;9.68;6.57;;;;;;;;;;5152999;27;20027;-84
2021/07/01 07:26:54;;;;;;;11.35;7.85;;;;;;;;;;5133944;27;20045;-86
2021/07/01 07:29:20;;;;;;;30.47;8.10;;;;;;;;;;5134216;27;20114;-84
2021/07/01 07:31:47;;;;;;;10.77;6.65;;;;;;;;;;5152812;27;20072;-85
2021/07/01 07:34:13;;;;;;;11.05;6.45;;;;;;;;;;5149064;27;20043;-83
2021/07/01 07:36:39;;;;;;;10.73;6.40;;;;;;;;;;5152138;27;20023;-85
2021/07/01 07:39:07;;;;;;;13.95;8.00;;;;;;;;;;5133596;27;20481;-87
2021/07/01 07:41:33;;;;;;;13.63;8.80;;;;;;;;;;5133901;27;20063;-88
2021/07/01 07:43:59;;;;;;;11.30;8.20;;;;;;;;;;5152737;27;20030;-82
2021/07/01 07:46:26;;;;;;;13.02;6.57;;;;;;;;;;5150956;27;20019;-86
2021/07/01 07:48:53;;;;;;;16.00;6.45;;;;;;;;;;5139577;27;20027;-87
2021/07/01 07:51:23;;;;;;;44.08;9.15;;;;;;;;;;5132227;28;20023;-86
2021/07/01 07:53:52;;;;;;;25.83;14.27;;;;;;;;;;5132130;28;20102;-85
2021/07/01 07:56:26;;;;;;;27.23;7.80;;;;;;;;;;5131761;28;20023;-86
2021/07/01 07:58:54;;;;;;;14.65;6.63;;;;;;;;;;5131685;28;20102;-83
2021/07/01 08:01:21;;;;;;;10.73;6.68;;;;;;;;;;5132030;27;20466;-84
2021/07/01 08:03:47;;;;;;;12.00;6.30;;;;;;;;;;5134373;27;20059;-83
2021/07/01 08:06:14;;;;;;;13.80;7.05;;;;;;;;;;5135071;27;20038;-88
2021/07/01 08:08:42;;;;;;;14.55;8.80;;;;;;;;;;5149050;27;20030;-84
2021/07/01 08:11:09;;;;;;;16.42;7.53;;;;;;;;;;5133930;27;20026;-88
2021/07/01 08:13:37;;;;;;;12.30;6.70;;;;;;;;;;5133780;27;20046;-87
2021/07/01 08:16:07;;;;;;;15.50;7.93;;;;;;;;;;5113922;28;20020;-84
2021/07/01 08:18:37;;;;;;;14.48;7.20;;;;;;;;;;5113189;28;20114;-83
2021/07/01 08:21:03;;;;;;;12.10;7.55;;;;;;;;;;5131674;27;20027;-83
2021/07/01 08:23:30;;;;;;;17.80;10.43;;;;;;;;;;5117889;27;20046;-85
2021/07/01 08:25:57;;;;;;;11.75;7.43;;;;;;;;;;5156365;27;20018;-87
2021/07/01 08:28:23;;;;;;;9.68;6.22;;;;;;;;;;5156484;27;20026;-82
2021/07/01 08:30:50;;;;;;;12.45;7.68;;;;;;;;;;5152273;27;20022;-74
2021/07/01 08:33:19;;;;;;;18.38;7.63;;;;;;;;;;5150293;27;20029;-81
2021/07/01 08:35:49;;;;;;;13.00;7.20;;;;;;;;;;5155854;27;20027;-82
2021/07/01 08:38:16;;;;;;;19.10;12.68;;;;;;;;;;5127230;27;20027;-84
2021/07/01 08:40:45;;;;;;;20.27;13.73;;;;;;;;;;5134287;27;20155;-83
2021/07/01 08:43:13;;;;;;;13.60;6.82;;;;;;;;;;5149555;27;20066;-81
2021/07/01 08:45:50;;;;;;;59.33;10.95;;;;;;;;;;5150258;27;20503;-83
2021/07/01 08:48:23;;;;;;;13.20;6.93;;;;;;;;;;5135157;27;20011;-82
2021/07/01 08:50:54;;;;;;;13.23;6.63;;;;;;;;;;5140235;27;20015;-83
2021/07/01 08:53:39;;;;;;;17.77;7.57;;;;;;;;;;5156332;27;20023;-82
2021/07/01 08:56:11;;;;;;;15.20;7.07;;;;;;;;;;5154825;27;20031;-81
2021/07/01 08:58:43;;;;;;;12.93;6.70;;;;;;;;;;5141062;27;20026;-81
2021/07/01 09:01:09;;;;;;;18.27;7.18;;;;;;;;;;5144056;27;20454;-83
2021/07/01 09:03:36;;;;;;;17.48;7.30;;;;;;;;;;5152368;27;20071;-80
2021/07/01 09:06:04;;;;;;;14.75;6.47;;;;;;;;;;5149631;27;20018;-82
2021/07/01 09:08:31;;;;;;;27.85;7.47;;;;;;;;;;5149337;27;20015;-82
2021/07/01 09:11:01;;;;;;;16.50;6.50;;;;;;;;;;5148663;27;20426;-79
2021/07/01 09:13:29;;;;;;;16.50;6.95;;;;;;;;;;5150280;27;20106;-86
2021/07/01 09:15:55;;;;;;;15.68;6.82;;;;;;;;;;5144417;27;20042;-84
2021/07/01 09:18:23;;;;;;;12.32;6.03;;;;;;;;;;5153758;27;20099;-83
2021/07/01 09:20:50;;;;;;;34.53;9.77;;;;;;;;;;5155069;27;20067;-83
2021/07/01 09:23:17;;;;;;;26.95;21.70;;;;;;;;;;5154975;27;20049;-86
2021/07/01 09:25:44;;;;;;;16.38;7.43;;;;;;;;;;5154796;27;20359;-83
2021/07/01 09:28:10;;;;;;;27.00;9.27;;;;;;;;;;5148117;27;20023;-85
2021/07/01 09:30:36;;;;;;;41.17;9.43;;;;;;;;;;5154720;27;20027;-82
2021/07/01 09:33:04;;;;;;;20.67;7.95;;;;;;;;;;5154392;27;20397;-86
2021/07/01 09:35:32;;;;;;;17.48;8.18;;;;;;;;;;5147522;27;20019;-85
2021/07/01 09:38:04;;;;;;;16.92;6.43;;;;;;;;;;5144791;27;20107;-84
2021/07/01 09:40:30;;;;;;;20.45;8.23;;;;;;;;;;5135702;27;20566;-83
2021/07/01 09:42:59;;;;;;;18.02;6.75;;;;;;;;;;5154474;27;20114;-86
2021/07/01 09:45:26;;;;;;;21.45;8.77;;;;;;;;;;5154763;27;20385;-85
2021/07/01 09:47:54;;;;;;;17.30;5.20;;;;;;;;;;5154935;27;20054;-84
2021/07/01 09:50:23;;;;;;;16.40;5.53;;;;;;;;;;5155050;27;20061;-84
2021/07/01 09:52:49;;;;;;;18.00;6.30;;;;;;;;;;5154462;27;20497;-84
2021/07/01 09:55:15;;;;;;;20.42;6.32;;;;;;;;;;5154504;27;20022;-84
2021/07/01 09:57:45;;;;;;;21.48;5.75;;;;;;;;;;5154424;27;20031;-83
2021/07/01 10:00:13;;;;;;;17.02;6.43;;;;;;;;;;5154502;27;20030;-87
2021/07/01 10:02:39;;;;;;;47.05;9.82;;;;;;;;;;5124036;27;20545;-83
2021/07/01 10:05:06;;;;;;;22.63;6.50;;;;;;;;;;5113325;28;20019;-82
2021/07/01 10:07:33;;;;;;;18.27;6.05;;;;;;;;;;5121048;27;20058;-82
2021/07/01 10:10:10;;;;;;;17.98;6.03;;;;;;;;;;5119985;27;20069;-82
2021/07/01 10:12:47;;;;;;;22.20;8.10;;;;;;;;;;5112818;28;20012;-83
2021/07/01 10:15:24;;;;;;;30.27;7.13;;;;;;;;;;5115285;27;20073;-83
2021/07/01 10:18:08;;;;;;;18.98;6.95;;;;;;;;;;5125495;27;20552;-85
2021/07/01 10:20:36;;;;;;;18.02;6.53;;;;;;;;;;5114204;27;20034;-86
2021/07/01 10:23:02;;;;;;;23.40;9.02;;;;;;;;;;5112822;28;20030;-86
2021/07/01 10:25:30;;;;;;;17.02;6.32;;;;;;;;;;5112635;28;20022;-82
2021/07/01 10:27:58;;;;;;;16.40;5.53;;;;;;;;;;5112757;28;20103;-84
2021/07/01 10:30:24;;;;;;;17.50;6.43;;;;;;;;;;5112487;28;20019;-83
2021/07/01 10:32:51;;;;;;;38.42;8.20;;;;;;;;;;5105100;27;20041;-83
2021/07/01 10:35:22;;;;;;;19.42;6.15;;;;;;;;;;5129477;27;20019;-86
2021/07/01 10:37:56;;;;;;;23.55;8.38;;;;;;;;;;5122438;27;20494;-85
2021/07/01 10:40:22;;;;;;;20.90;6.95;;;;;;;;;;5116766;27;20172;-83
2021/07/01 10:42:50;;;;;;;23.98;8.65;;;;;;;;;;5118618;27;20067;-85
2021/07/01 10:45:16;;;;;;;27.23;8.02;;;;;;;;;;5114382;27;20035;-84
2021/07/01 10:47:42;;;;;;;27.25;6.88;;;;;;;;;;5122492;27;20037;-81
2021/07/01 10:50:21;;;;;;;24.00;6.68;;;;;;;;;;5132560;27;20023;-85
2021/07/01 10:52:48;;;;;;;21.67;7.10;;;;;;;;;;5127437;27;20395;-85
2021/07/01 10:55:15;;;;;;;27.58;7.75;;;;;;;;;;5093321;28;20028;-86
2021/07/01 10:57:49;;;;;;;23.95;7.97;;;;;;;;;;5109525;27;20019;-87
2021/07/01 11:00:15;;;;;;;23.10;6.78;;;;;;;;;;5116184;27;20030;-84
2021/07/01 11:02:49;;;;;;;24.00;5.45;;;;;;;;;;5125773;27;20019;-85
2021/07/01 11:05:15;;;;;;;23.98;6.65;;;;;;;;;;5112117;28;20027;-82
2021/07/01 11:07:43;;;;;;;20.73;5.38;;;;;;;;;;5116307;27;20026;-81
2021/07/01 11:10:10;;;;;;;20.02;6.07;;;;;;;;;;5126427;27;20027;-83
2021/07/01 11:12:43;;;;;;;17.70;6.22;;;;;;;;;;5114189;27;20069;-85
2021/07/01 11:15:10;;;;;;;23.63;5.90;;;;;;;;;;5129377;27;20138;-83
2021/07/01 11:17:37;;;;;;;23.40;6.40;;;;;;;;;;5124338;27;20028;-85
2021/07/01 11:20:22;;;;;;;23.60;5.45;;;;;;;;;;5094139;28;20030;-84
2021/07/01 11:22:53;;;;;;;19.40;5.78;;;;;;;;;;5092996;28;20386;-84
2021/07/01 11:25:23;;;;;;;22.95;6.30;;;;;;;;;;5114482;28;20381;-85
2021/07/01 11:27:49;;;;;;;27.40;5.68;;;;;;;;;;5113622;28;20026;-83
2021/07/01 11:30:25;;;;;;;20.70;5.07;;;;;;;;;;5113412;27;20030;-72
2021/07/01 11:33:10;;;;;;;19.88;6.03;;;;;;;;;;5132330;27;20029;-83
2021/07/01 11:35:36;;;;;;;17.80;5.20;;;;;;;;;;5133017;28;20031;-85
2021/07/01 11:38:02;;;;;;;90.57;34.75;;;;;;;;;;5123752;27;20028;-85
2021/07/01 11:40:28;;;;;;;18.67;5.50;;;;;;;;;;5104317;28;20054;-85
2021/07/01 11:42:55;;;;;;;43.38;20.25;;;;;;;;;;5132559;28;20066;-84
2021/07/01 11:45:21;;;;;;;27.10;7.35;;;;;;;;;;5123832;28;20135;-80
2021/07/01 11:47:50;;;;;;;18.80;5.15;;;;;;;;;;5115425;28;20050;-85
2021/07/01 11:50:17;;;;;;;18.83;6.00;;;;;;;;;;5126237;28;20016;-83
2021/07/01 11:52:43;;;;;;;28.58;6.22;;;;;;;;;;5114857;27;20079;-88
2021/07/01 11:55:11;;;;;;;23.25;6.03;;;;;;;;;;5099584;28;20024;-84
2021/07/01 11:57:37;;;;;;;29.08;6.63;;;;;;;;;;5136950;27;20046;-88
2021/07/01 12:00:04;;;;;;;20.60;5.30;;;;;;;;;;5111401;28;20022;-84
2021/07/01 12:02:31;;;;;;;25.75;6.35;;;;;;;;;;5119431;27;20106;-85
2021/07/01 12:04:58;;;;;;;21.17;6.68;;;;;;;;;;5106928;28;20027;-87
2021/07/01 12:07:25;;;;;;;18.17;4.35;;;;;;;;;;5098204;28;20055;-85
2021/07/01 12:09:52;;;;;;;23.63;7.40;;;;;;;;;;5116056;28;20028;-82
2021/07/01 12:12:22;;;;;;;23.70;6.32;;;;;;;;;;5125709;27;20028;-86
2021/07/01 12:14:49;;;;;;;17.85;5.95;;;;;;;;;;5135998;27;20023;-81
2021/07/01 12:17:34;;;;;;;20.40;6.75;;;;;;;;;;5136504;27;20102;-85
2021/07/01 12:20:02;;;;;;;22.50;7.03;;;;;;;;;;5125017;27;20119;-84
2021/07/01 12:22:47;;;;;;;22.25;6.32;;;;;;;;;;5109831;27;20031;-83
2021/07/01 12:25:14;;;;;;;20.35;6.72;;;;;;;;;;5126019;27;20035;-85
2021/07/01 12:27:40;;;;;;;18.83;4.97;;;;;;;;;;5135815;27;20035;-82
2021/07/01 12:30:06;;;;;;;15.93;4.68;;;;;;;;;;5134913;27;20084;-81
2021/07/01 12:32:33;;;;;;;18.20;4.90;;;;;;;;;;5135597;27;20084;-80
2021/07/01 12:34:59;;;;;;;19.83;6.25;;;;;;;;;;5131041;27;20055;-81
2021/07/01 12:37:25;;;;;;;20.77;5.22;;;;;;;;;;5115107;27;20118;-86
2021/07/01 12:39:52;;;;;;;18.75;5.00;;;;;;;;;;5127436;27;20061;-84
2021/07/01 12:42:18;;;;;;;19.35;5.10;;;;;;;;;;5133959;27;20037;-84
2021/07/01 12:44:45;;;;;;;23.27;13.32;;;;;;;;;;5129276;27;20059;-84
2021/07/01 12:47:36;;;;;;;17.08;6.90;;;;;;;;;;5136264;27;20042;-82
2021/07/01 12:50:04;;;;;;;12.35;3.97;;;;;;;;;;5135531;27;20031;-86
2021/07/01 12:52:34;;;;;;;13.15;3.83;;;;;;;;;;5116035;27;20015;-87
2021/07/01 12:55:01;;;;;;;25.92;9.55;;;;;;;;;;5127120;27;20072;-87
2021/07/01 12:57:27;;;;;;;21.83;3.63;;;;;;;;;;5127495;27;20076;-84
2021/07/01 12:59:58;;;;;;;18.98;4.28;;;;;;;;;;5112434;27;20083;-88
2021/07/01 13:02:43;;;;;;;19.45;4.22;;;;;;;;;;5130910;27;20019;-84
2021/07/01 13:05:12;;;;;;;40.88;5.32;;;;;;;;;;5127677;27;20035;-84
2021/07/01 13:07:38;;;;;;;12.85;3.88;;;;;;;;;;5137059;27;20102;-84
2021/07/01 13:10:08;;;;;;;18.42;4.40;;;;;;;;;;5128887;27;20076;-85
2021/07/01 13:12:37;;;;;;;9.43;3.15;;;;;;;;;;5105703;28;20084;-85
2021/07/01 13:15:08;;;;;;;16.05;4.15;;;;;;;;;;5113709;28;20500;-84
2021/07/01 13:17:41;;;;;;;7.97;2.67;;;;;;;;;;5122530;27;20038;-83
2021/07/01 13:20:08;;;;;;;23.58;4.07;;;;;;;;;;5102890;27;20027;-84
2021/07/01 13:22:36;;;;;;;14.00;3.55;;;;;;;;;;5134780;27;20387;-87
2021/07/01 13:25:07;;;;;;;11.25;2.95;;;;;;;;;;5117201;27;20026;-86
2021/07/01 13:27:34;;;;;;;8.75;2.97;;;;;;;;;;5135172;27;20378;-83
2021/07/01 13:30:01;;;;;;;20.15;4.32;;;;;;;;;;5125471;27;20046;-83
2021/07/01 13:32:28;;;;;;;34.63;5.25;;;;;;;;;;5135471;27;20080;-86
2021/07/01 13:34:54;;;;;;;28.45;8.55;;;;;;;;;;5135002;27;20483;-85
2021/07/01 13:37:39;;;;;;;15.07;4.07;;;;;;;;;;5135451;27;20023;-85
2021/07/01 13:40:19;;;;;;;13.52;4.43;;;;;;;;;;5135273;27;20027;-84
2021/07/01 13:42:46;;;;;;;8.85;2.95;;;;;;;;;;5116902;27;20081;-85
2021/07/01 13:45:16;;;;;;;16.33;4.80;;;;;;;;;;5135091;27;20080;-85
2021/07/01 13:47:44;;;;;;;13.32;3.65;;;;;;;;;;5135091;27;20103;-84
2021/07/01 13:50:29;;;;;;;13.25;3.83;;;;;;;;;;5135558;27;20019;-83
2021/07/01 13:52:56;;;;;;;13.77;3.60;;;;;;;;;;5134847;27;20389;-83
2021/07/01 13:55:24;;;;;;;16.73;3.92;;;;;;;;;;5135343;27;20030;-84
2021/07/01 13:57:51;;;;;;;11.63;3.33;;;;;;;;;;5116568;27;20023;-84
2021/07/01 14:00:25;;;;;;;13.07;3.30;;;;;;;;;;5134870;27;20102;-84
2021/07/01 14:02:51;;;;;;;37.53;5.25;;;;;;;;;;5134879;27;20031;-83
2021/07/01 14:05:36;;;;;;;10.98;2.47;;;;;;;;;;5134875;27;20027;-87
2021/07/01 14:08:03;;;;;;;11.05;3.55;;;;;;;;;;5134539;27;20028;-84
2021/07/01 14:10:30;;;;;;;11.98;3.47;;;;;;;;;;5135039;27;20030;-85
2021/07/01 14:12:56;;;;;;;17.02;4.50;;;;;;;;;;5134762;27;20347;-82
2021/07/01 14:15:23;;;;;;;40.03;6.75;;;;;;;;;;5134076;27;20035;-88
2021/07/01 14:17:49;;;;;;;13.60;4.45;;;;;;;;;;5116596;27;20393;-84
2021/07/01 14:20:18;;;;;;;11.18;2.97;;;;;;;;;;5133661;27;20023;-85
2021/07/01 14:22:44;;;;;;;10.45;3.25;;;;;;;;;;5134291;27;20149;-84
2021/07/01 14:25:15;;;;;;;9.52;2.58;;;;;;;;;;5134669;27;20023;-83
2021/07/01 14:27:41;;;;;;;8.32;2.55;;;;;;;;;;5134799;27;20026;-83
2021/07/01 14:30:07;;;;;;;15.65;3.63;;;;;;;;;;5134078;27;20023;-83
2021/07/01 14:32:34;;;;;;;7.68;2.70;;;;;;;;;;5134520;27;20027;-84
2021/07/01 14:35:00;;;;;;;12.10;3.63;;;;;;;;;;5134282;27;20019;-84